sensor_id;sensor_type;location;lat;lon;timestamp;temperature;humidity
75210;DHT22;63796;53.136;14.882;2023-11-21T00:00:00;7.20;99.90
75210;DHT22;63796;53.136;14.882;2023-11-21T00:02:28;7.20;99.90
75210;DHT22;63796;53.136;14.882;2023-11-21T00:04:56;7.20;99.90
75210;DHT22;63796;53.136;14.882;2023-11-21T00:07:23;7.10;99.90
75210;DHT22;63796;53.136;14.882;2023-11-21T00:09:50;7.20;99.90
75210;DHT22;63796;53.136;14.882;2023-11-21T00:12:17;7.10;99.90
75210;DHT22;63796;53.136;14.882;2023-11-21T00:14:45;6.90;99.90
75210;DHT22;63796;53.136;14.882;2023-11-21T00:17:12;6.90;99.90
75210;DHT22;63796;53.136;14.882;2023-11-21T00:19:40;6.80;99.90
75210;DHT22;63796;53.136;14.882;2023-11-21T00:22:07;6.90;99.90
75210;DHT22;63796;53.136;14.882;2023-11-21T00:24:34;7.00;99.90
75210;DHT22;63796;53.136;14.882;2023-11-21T00:27:02;6.90;99.90
75210;DHT22;63796;53.136;14.882;2023-11-21T00:29:29;6.80;99.90
75210;DHT22;63796;53.136;14.882;2023-11-21T00:31:57;7.00;99.90
75210;DHT22;63796;53.136;14.882;2023-11-21T00:34:24;7.10;99.90
75210;DHT22;63796;53.136;14.882;2023-11-21T00:36:51;7.20;99.90
75210;DHT22;63796;53.136;14.882;2023-11-21T00:39:19;7.20;99.90
75210;DHT22;63796;53.136;14.882;2023-11-21T00:41:46;7.20;99.90
75210;DHT22;63796;53.136;14.882;2023-11-21T00:44:14;7.10;99.90
75210;DHT22;63796;53.136;14.882;2023-11-21T00:46:41;7.20;99.90
75210;DHT22;63796;53.136;14.882;2023-11-21T00:49:08;7.10;99.90
75210;DHT22;63796;53.136;14.882;2023-11-21T00:51:36;7.10;99.90
75210;DHT22;63796;53.136;14.882;2023-11-21T00:54:03;6.90;99.90
75210;DHT22;63796;53.136;14.882;2023-11-21T00:56:31;7.00;99.90
75210;DHT22;63796;53.136;14.882;2023-11-21T00:58:58;7.00;99.90
75210;DHT22;63796;53.136;14.882;2023-11-21T01:01:26;7.00;99.90
75210;DHT22;63796;53.136;14.882;2023-11-21T01:03:53;7.00;99.90
75210;DHT22;63796;53.136;14.882;2023-11-21T01:06:21;7.00;99.90
75210;DHT22;63796;53.136;14.882;2023-11-21T01:08:48;6.90;99.90
75210;DHT22;63796;53.136;14.882;2023-11-21T01:11:15;6.70;99.90
75210;DHT22;63796;53.136;14.882;2023-11-21T01:13:42;6.80;99.90
75210;DHT22;63796;53.136;14.882;2023-11-21T01:16:11;6.70;99.90
75210;DHT22;63796;53.136;14.882;2023-11-21T01:18:39;6.80;99.90
75210;DHT22;63796;53.136;14.882;2023-11-21T01:21:06;6.90;99.90
75210;DHT22;63796;53.136;14.882;2023-11-21T01:23:34;7.00;99.90
75210;DHT22;63796;53.136;14.882;2023-11-21T01:26:02;7.00;99.90
75210;DHT22;63796;53.136;14.882;2023-11-21T01:28:30;6.90;99.90
75210;DHT22;63796;53.136;14.882;2023-11-21T01:30:57;6.80;99.90
75210;DHT22;63796;53.136;14.882;2023-11-21T01:33:24;6.70;99.90
75210;DHT22;63796;53.136;14.882;2023-11-21T01:35:52;6.70;99.90
75210;DHT22;63796;53.136;14.882;2023-11-21T01:38:22;6.60;99.90
75210;DHT22;63796;53.136;14.882;2023-11-21T01:40:49;6.60;99.90
75210;DHT22;63796;53.136;14.882;2023-11-21T01:43:17;6.70;99.90
75210;DHT22;63796;53.136;14.882;2023-11-21T01:45:44;6.60;99.90
75210;DHT22;63796;53.136;14.882;2023-11-21T01:48:14;6.60;99.90
75210;DHT22;63796;53.136;14.882;2023-11-21T01:50:43;6.80;99.90
75210;DHT22;63796;53.136;14.882;2023-11-21T01:53:12;6.70;99.90
75210;DHT22;63796;53.136;14.882;2023-11-21T01:55:40;6.60;99.90
75210;DHT22;63796;53.136;14.882;2023-11-21T01:58:09;6.50;99.90
75210;DHT22;63796;53.136;14.882;2023-11-21T02:00:38;6.40;99.90
75210;DHT22;63796;53.136;14.882;2023-11-21T02:03:05;6.40;99.90
75210;DHT22;63796;53.136;14.882;2023-11-21T02:05:34;6.40;99.90
75210;DHT22;63796;53.136;14.882;2023-11-21T02:08:01;6.30;99.90
75210;DHT22;63796;53.136;14.882;2023-11-21T02:13:32;6.50;99.90
75210;DHT22;63796;53.136;14.882;2023-11-21T02:16:00;6.60;99.90
75210;DHT22;63796;53.136;14.882;2023-11-21T02:18:28;6.40;99.90
75210;DHT22;63796;53.136;14.882;2023-11-21T02:20:56;6.20;99.90
75210;DHT22;63796;53.136;14.882;2023-11-21T02:23:24;6.20;99.90
75210;DHT22;63796;53.136;14.882;2023-11-21T02:25:55;6.20;99.90
75210;DHT22;63796;53.136;14.882;2023-11-21T02:28:23;6.30;99.90
75210;DHT22;63796;53.136;14.882;2023-11-21T02:30:53;6.30;99.90
75210;DHT22;63796;53.136;14.882;2023-11-21T02:33:25;6.20;99.90
75210;DHT22;63796;53.136;14.882;2023-11-21T02:35:52;6.30;99.90
75210;DHT22;63796;53.136;14.882;2023-11-21T02:38:22;6.30;99.90
75210;DHT22;63796;53.136;14.882;2023-11-21T02:40:49;6.30;99.90
75210;DHT22;63796;53.136;14.882;2023-11-21T02:43:17;6.40;99.90
75210;DHT22;63796;53.136;14.882;2023-11-21T02:45:44;6.50;99.90
75210;DHT22;63796;53.136;14.882;2023-11-21T02:48:12;6.60;99.90
75210;DHT22;63796;53.136;14.882;2023-11-21T02:50:40;6.50;99.90
75210;DHT22;63796;53.136;14.882;2023-11-21T02:53:07;6.40;99.90
75210;DHT22;63796;53.136;14.882;2023-11-21T02:55:34;6.60;99.90
75210;DHT22;63796;53.136;14.882;2023-11-21T02:58:03;6.40;99.90
75210;DHT22;63796;53.136;14.882;2023-11-21T03:00:33;6.40;99.90
75210;DHT22;63796;53.136;14.882;2023-11-21T03:03:01;6.20;99.90
75210;DHT22;63796;53.136;14.882;2023-11-21T03:05:28;6.40;99.90
75210;DHT22;63796;53.136;14.882;2023-11-21T03:07:56;6.40;99.90
75210;DHT22;63796;53.136;14.882;2023-11-21T03:10:23;6.40;99.90
75210;DHT22;63796;53.136;14.882;2023-11-21T03:12:51;6.20;99.90
75210;DHT22;63796;53.136;14.882;2023-11-21T03:15:18;6.30;99.90
75210;DHT22;63796;53.136;14.882;2023-11-21T03:17:46;6.20;99.90
75210;DHT22;63796;53.136;14.882;2023-11-21T03:20:16;6.30;99.90
75210;DHT22;63796;53.136;14.882;2023-11-21T03:22:43;6.20;99.90
75210;DHT22;63796;53.136;14.882;2023-11-21T03:25:12;6.30;99.90
75210;DHT22;63796;53.136;14.882;2023-11-21T03:27:40;6.50;99.90
75210;DHT22;63796;53.136;14.882;2023-11-21T03:30:08;6.50;99.90
75210;DHT22;63796;53.136;14.882;2023-11-21T03:32:37;6.30;99.90
75210;DHT22;63796;53.136;14.882;2023-11-21T03:35:04;6.40;99.90
75210;DHT22;63796;53.136;14.882;2023-11-21T03:37:33;6.50;99.90
75210;DHT22;63796;53.136;14.882;2023-11-21T03:40:01;6.50;99.90
75210;DHT22;63796;53.136;14.882;2023-11-21T03:42:31;6.50;99.90
75210;DHT22;63796;53.136;14.882;2023-11-21T03:44:58;6.50;99.90
75210;DHT22;63796;53.136;14.882;2023-11-21T03:47:26;6.50;99.90
75210;DHT22;63796;53.136;14.882;2023-11-21T03:49:55;6.40;99.90
75210;DHT22;63796;53.136;14.882;2023-11-21T03:52:23;6.30;99.90
75210;DHT22;63796;53.136;14.882;2023-11-21T03:54:51;6.20;99.90
75210;DHT22;63796;53.136;14.882;2023-11-21T03:57:19;6.20;99.90
75210;DHT22;63796;53.136;14.882;2023-11-21T03:59:46;6.20;99.90
75210;DHT22;63796;53.136;14.882;2023-11-21T04:02:14;6.00;99.90
75210;DHT22;63796;53.136;14.882;2023-11-21T04:04:41;6.20;99.90
75210;DHT22;63796;53.136;14.882;2023-11-21T04:07:09;6.20;99.90
75210;DHT22;63796;53.136;14.882;2023-11-21T04:09:36;6.00;99.90
75210;DHT22;63796;53.136;14.882;2023-11-21T04:12:04;6.10;99.90
75210;DHT22;63796;53.136;14.882;2023-11-21T04:14:32;6.30;99.90
75210;DHT22;63796;53.136;14.882;2023-11-21T04:16:59;6.40;99.90
75210;DHT22;63796;53.136;14.882;2023-11-21T04:19:27;6.30;99.90
75210;DHT22;63796;53.136;14.882;2023-11-21T04:21:54;6.10;99.90
75210;DHT22;63796;53.136;14.882;2023-11-21T04:24:21;6.00;99.90
75210;DHT22;63796;53.136;14.882;2023-11-21T04:26:49;6.10;99.90
75210;DHT22;63796;53.136;14.882;2023-11-21T04:29:16;6.10;99.90
75210;DHT22;63796;53.136;14.882;2023-11-21T04:31:43;5.90;99.90
75210;DHT22;63796;53.136;14.882;2023-11-21T04:34:11;6.10;99.90
75210;DHT22;63796;53.136;14.882;2023-11-21T04:36:38;6.10;99.90
75210;DHT22;63796;53.136;14.882;2023-11-21T04:39:07;6.10;99.90
75210;DHT22;63796;53.136;14.882;2023-11-21T04:41:34;5.80;99.90
75210;DHT22;63796;53.136;14.882;2023-11-21T04:44:01;5.70;99.90
75210;DHT22;63796;53.136;14.882;2023-11-21T04:46:29;5.70;99.90
75210;DHT22;63796;53.136;14.882;2023-11-21T04:48:56;5.90;99.90
75210;DHT22;63796;53.136;14.882;2023-11-21T04:51:24;5.80;99.90
75210;DHT22;63796;53.136;14.882;2023-11-21T04:53:51;5.80;99.90
75210;DHT22;63796;53.136;14.882;2023-11-21T04:56:19;5.70;99.90
75210;DHT22;63796;53.136;14.882;2023-11-21T04:58:46;5.70;99.90
75210;DHT22;63796;53.136;14.882;2023-11-21T05:01:13;5.70;99.90
75210;DHT22;63796;53.136;14.882;2023-11-21T05:03:41;5.80;99.90
75210;DHT22;63796;53.136;14.882;2023-11-21T05:06:09;5.70;99.90
75210;DHT22;63796;53.136;14.882;2023-11-21T05:08:37;5.60;99.90
75210;DHT22;63796;53.136;14.882;2023-11-21T05:11:05;5.40;99.90
75210;DHT22;63796;53.136;14.882;2023-11-21T05:13:34;5.50;99.90
75210;DHT22;63796;53.136;14.882;2023-11-21T05:16:03;5.70;99.90
75210;DHT22;63796;53.136;14.882;2023-11-21T05:18:34;5.60;99.90
75210;DHT22;63796;53.136;14.882;2023-11-21T05:21:01;5.50;99.90
75210;DHT22;63796;53.136;14.882;2023-11-21T05:23:29;5.50;99.90
75210;DHT22;63796;53.136;14.882;2023-11-21T05:25:57;5.50;99.90
75210;DHT22;63796;53.136;14.882;2023-11-21T05:28:24;5.70;99.90
75210;DHT22;63796;53.136;14.882;2023-11-21T05:30:52;5.50;99.90
75210;DHT22;63796;53.136;14.882;2023-11-21T05:33:40;5.50;99.90
75210;DHT22;63796;53.136;14.882;2023-11-21T05:36:08;5.60;99.90
75210;DHT22;63796;53.136;14.882;2023-11-21T05:38:36;5.50;99.90
75210;DHT22;63796;53.136;14.882;2023-11-21T05:41:04;5.40;99.90
75210;DHT22;63796;53.136;14.882;2023-11-21T05:43:31;5.30;99.90
75210;DHT22;63796;53.136;14.882;2023-11-21T05:46:02;5.40;99.90
75210;DHT22;63796;53.136;14.882;2023-11-21T05:48:30;5.40;99.90
75210;DHT22;63796;53.136;14.882;2023-11-21T05:50:57;5.20;99.90
75210;DHT22;63796;53.136;14.882;2023-11-21T05:53:26;5.30;99.90
75210;DHT22;63796;53.136;14.882;2023-11-21T05:55:53;5.40;99.90
75210;DHT22;63796;53.136;14.882;2023-11-21T05:58:20;5.50;99.90
75210;DHT22;63796;53.136;14.882;2023-11-21T06:00:48;5.30;99.90
75210;DHT22;63796;53.136;14.882;2023-11-21T06:03:16;5.30;99.90
75210;DHT22;63796;53.136;14.882;2023-11-21T06:05:44;5.20;99.90
75210;DHT22;63796;53.136;14.882;2023-11-21T06:08:12;5.30;99.90
75210;DHT22;63796;53.136;14.882;2023-11-21T06:10:39;5.30;99.90
75210;DHT22;63796;53.136;14.882;2023-11-21T06:13:07;5.30;99.90
75210;DHT22;63796;53.136;14.882;2023-11-21T06:15:35;5.50;99.90
75210;DHT22;63796;53.136;14.882;2023-11-21T06:18:02;5.40;99.90
75210;DHT22;63796;53.136;14.882;2023-11-21T06:20:30;5.10;99.90
75210;DHT22;63796;53.136;14.882;2023-11-21T06:22:57;4.90;99.90
75210;DHT22;63796;53.136;14.882;2023-11-21T06:25:25;4.80;99.90
75210;DHT22;63796;53.136;14.882;2023-11-21T06:27:52;4.80;99.90
75210;DHT22;63796;53.136;14.882;2023-11-21T06:30:21;4.90;99.90
75210;DHT22;63796;53.136;14.882;2023-11-21T06:32:48;5.00;99.90
75210;DHT22;63796;53.136;14.882;2023-11-21T06:35:18;5.10;99.90
75210;DHT22;63796;53.136;14.882;2023-11-21T06:37:45;5.20;99.90
75210;DHT22;63796;53.136;14.882;2023-11-21T06:40:19;5.10;99.90
75210;DHT22;63796;53.136;14.882;2023-11-21T06:42:48;4.90;99.90
75210;DHT22;63796;53.136;14.882;2023-11-21T06:45:16;5.00;99.90
75210;DHT22;63796;53.136;14.882;2023-11-21T06:47:44;5.00;99.90
75210;DHT22;63796;53.136;14.882;2023-11-21T06:50:12;5.00;99.90
75210;DHT22;63796;53.136;14.882;2023-11-21T06:52:40;5.00;99.90
75210;DHT22;63796;53.136;14.882;2023-11-21T06:55:07;5.10;99.90
75210;DHT22;63796;53.136;14.882;2023-11-21T06:57:36;5.20;99.90
75210;DHT22;63796;53.136;14.882;2023-11-21T07:00:04;5.20;99.90
75210;DHT22;63796;53.136;14.882;2023-11-21T07:02:33;5.10;99.90
75210;DHT22;63796;53.136;14.882;2023-11-21T07:05:01;5.20;99.90
75210;DHT22;63796;53.136;14.882;2023-11-21T07:07:28;5.20;99.90
75210;DHT22;63796;53.136;14.882;2023-11-21T07:09:56;5.20;99.90
75210;DHT22;63796;53.136;14.882;2023-11-21T07:12:23;5.30;99.90
75210;DHT22;63796;53.136;14.882;2023-11-21T07:14:53;5.40;99.90
75210;DHT22;63796;53.136;14.882;2023-11-21T07:17:20;5.30;99.90
75210;DHT22;63796;53.136;14.882;2023-11-21T07:19:50;5.30;99.90
75210;DHT22;63796;53.136;14.882;2023-11-21T07:22:18;4.80;99.90
75210;DHT22;63796;53.136;14.882;2023-11-21T07:24:49;4.70;99.90
75210;DHT22;63796;53.136;14.882;2023-11-21T07:27:19;4.70;99.90
75210;DHT22;63796;53.136;14.882;2023-11-21T07:29:46;5.00;99.90
75210;DHT22;63796;53.136;14.882;2023-11-21T07:32:15;5.10;99.90
75210;DHT22;63796;53.136;14.882;2023-11-21T07:34:43;5.10;99.90
75210;DHT22;63796;53.136;14.882;2023-11-21T07:37:10;4.90;99.90
75210;DHT22;63796;53.136;14.882;2023-11-21T07:39:38;4.90;99.90
75210;DHT22;63796;53.136;14.882;2023-11-21T07:42:09;4.60;99.90
75210;DHT22;63796;53.136;14.882;2023-11-21T07:44:38;5.00;99.90
75210;DHT22;63796;53.136;14.882;2023-11-21T07:47:05;5.00;99.90
75210;DHT22;63796;53.136;14.882;2023-11-21T07:49:33;5.10;99.90
75210;DHT22;63796;53.136;14.882;2023-11-21T07:52:01;5.20;99.90
75210;DHT22;63796;53.136;14.882;2023-11-21T07:54:28;5.00;99.90
75210;DHT22;63796;53.136;14.882;2023-11-21T07:56:55;4.90;99.90
75210;DHT22;63796;53.136;14.882;2023-11-21T07:59:23;4.80;99.90
75210;DHT22;63796;53.136;14.882;2023-11-21T08:01:50;4.90;99.90
75210;DHT22;63796;53.136;14.882;2023-11-21T08:04:18;4.80;99.90
75210;DHT22;63796;53.136;14.882;2023-11-21T08:06:45;4.80;99.90
75210;DHT22;63796;53.136;14.882;2023-11-21T08:09:13;4.80;99.90
75210;DHT22;63796;53.136;14.882;2023-11-21T08:11:42;4.80;99.90
75210;DHT22;63796;53.136;14.882;2023-11-21T08:14:10;5.10;99.90
75210;DHT22;63796;53.136;14.882;2023-11-21T08:16:37;5.20;99.90
75210;DHT22;63796;53.136;14.882;2023-11-21T08:19:05;4.90;99.90
75210;DHT22;63796;53.136;14.882;2023-11-21T08:21:33;5.00;99.90
75210;DHT22;63796;53.136;14.882;2023-11-21T08:24:01;5.10;99.90
75210;DHT22;63796;53.136;14.882;2023-11-21T08:26:30;5.10;99.90
75210;DHT22;63796;53.136;14.882;2023-11-21T08:28:57;5.00;99.90
75210;DHT22;63796;53.136;14.882;2023-11-21T08:31:25;5.00;99.90
75210;DHT22;63796;53.136;14.882;2023-11-21T08:33:53;4.80;99.90
75210;DHT22;63796;53.136;14.882;2023-11-21T08:36:23;5.00;99.90
75210;DHT22;63796;53.136;14.882;2023-11-21T08:38:51;5.10;99.90
75210;DHT22;63796;53.136;14.882;2023-11-21T08:41:19;5.10;99.90
75210;DHT22;63796;53.136;14.882;2023-11-21T08:43:49;5.00;99.90
75210;DHT22;63796;53.136;14.882;2023-11-21T08:46:18;5.00;99.90
75210;DHT22;63796;53.136;14.882;2023-11-21T08:48:47;4.90;99.90
75210;DHT22;63796;53.136;14.882;2023-11-21T08:51:15;5.10;99.90
75210;DHT22;63796;53.136;14.882;2023-11-21T08:53:43;5.20;99.90
75210;DHT22;63796;53.136;14.882;2023-11-21T08:56:13;5.50;99.90
75210;DHT22;63796;53.136;14.882;2023-11-21T08:58:42;5.30;99.90
75210;DHT22;63796;53.136;14.882;2023-11-21T09:01:09;5.40;99.90
75210;DHT22;63796;53.136;14.882;2023-11-21T09:03:37;5.50;99.90
75210;DHT22;63796;53.136;14.882;2023-11-21T09:06:05;5.10;99.90
75210;DHT22;63796;53.136;14.882;2023-11-21T09:08:33;4.80;99.90
75210;DHT22;63796;53.136;14.882;2023-11-21T09:11:00;4.70;99.90
75210;DHT22;63796;53.136;14.882;2023-11-21T09:13:27;4.80;99.90
75210;DHT22;63796;53.136;14.882;2023-11-21T09:15:56;4.80;99.90
75210;DHT22;63796;53.136;14.882;2023-11-21T09:18:24;4.90;99.90
75210;DHT22;63796;53.136;14.882;2023-11-21T09:20:51;4.90;99.90
75210;DHT22;63796;53.136;14.882;2023-11-21T09:23:19;4.80;99.90
75210;DHT22;63796;53.136;14.882;2023-11-21T09:25:46;4.80;99.90
75210;DHT22;63796;53.136;14.882;2023-11-21T09:28:16;4.90;99.90
75210;DHT22;63796;53.136;14.882;2023-11-21T09:30:44;5.20;99.90
75210;DHT22;63796;53.136;14.882;2023-11-21T09:33:11;5.10;99.90
75210;DHT22;63796;53.136;14.882;2023-11-21T09:35:39;5.00;99.90
75210;DHT22;63796;53.136;14.882;2023-11-21T09:38:06;5.10;99.90
75210;DHT22;63796;53.136;14.882;2023-11-21T09:40:38;4.90;99.90
75210;DHT22;63796;53.136;14.882;2023-11-21T09:43:06;4.80;99.90
75210;DHT22;63796;53.136;14.882;2023-11-21T09:45:44;4.70;99.90
75210;DHT22;63796;53.136;14.882;2023-11-21T09:48:14;4.80;99.90
75210;DHT22;63796;53.136;14.882;2023-11-21T09:50:43;4.70;99.90
75210;DHT22;63796;53.136;14.882;2023-11-21T09:53:13;4.70;99.90
75210;DHT22;63796;53.136;14.882;2023-11-21T09:55:46;4.70;99.90
75210;DHT22;63796;53.136;14.882;2023-11-21T09:58:14;4.80;99.90
75210;DHT22;63796;53.136;14.882;2023-11-21T10:00:43;4.70;99.90
75210;DHT22;63796;53.136;14.882;2023-11-21T10:03:12;4.70;99.90
75210;DHT22;63796;53.136;14.882;2023-11-21T10:05:41;4.60;99.90
75210;DHT22;63796;53.136;14.882;2023-11-21T10:08:10;4.80;99.90
75210;DHT22;63796;53.136;14.882;2023-11-21T10:10:39;4.70;99.90
75210;DHT22;63796;53.136;14.882;2023-11-21T10:13:12;4.70;99.90
75210;DHT22;63796;53.136;14.882;2023-11-21T10:15:45;4.70;99.90
75210;DHT22;63796;53.136;14.882;2023-11-21T10:18:17;4.70;99.90
75210;DHT22;63796;53.136;14.882;2023-11-21T10:20:45;4.70;99.90
75210;DHT22;63796;53.136;14.882;2023-11-21T10:23:20;4.70;99.90
75210;DHT22;63796;53.136;14.882;2023-11-21T10:25:51;4.70;99.90
75210;DHT22;63796;53.136;14.882;2023-11-21T10:28:20;4.80;99.90
75210;DHT22;63796;53.136;14.882;2023-11-21T10:30:48;4.90;99.90
75210;DHT22;63796;53.136;14.882;2023-11-21T10:33:16;4.90;99.90
75210;DHT22;63796;53.136;14.882;2023-11-21T10:35:44;4.90;99.90
75210;DHT22;63796;53.136;14.882;2023-11-21T10:38:21;5.00;99.90
75210;DHT22;63796;53.136;14.882;2023-11-21T10:40:51;4.80;99.90
75210;DHT22;63796;53.136;14.882;2023-11-21T10:43:19;4.70;99.90
75210;DHT22;63796;53.136;14.882;2023-11-21T10:45:47;4.90;99.90
75210;DHT22;63796;53.136;14.882;2023-11-21T10:48:15;4.90;99.90
75210;DHT22;63796;53.136;14.882;2023-11-21T10:50:44;5.00;99.90
75210;DHT22;63796;53.136;14.882;2023-11-21T10:53:13;4.90;99.90
75210;DHT22;63796;53.136;14.882;2023-11-21T10:55:42;4.80;99.90
75210;DHT22;63796;53.136;14.882;2023-11-21T10:58:13;4.80;99.90
75210;DHT22;63796;53.136;14.882;2023-11-21T11:00:41;4.80;99.90
75210;DHT22;63796;53.136;14.882;2023-11-21T11:03:12;4.80;99.90
75210;DHT22;63796;53.136;14.882;2023-11-21T11:05:43;4.80;99.90
75210;DHT22;63796;53.136;14.882;2023-11-21T11:08:21;4.80;99.90
75210;DHT22;63796;53.136;14.882;2023-11-21T11:10:54;4.90;99.90
75210;DHT22;63796;53.136;14.882;2023-11-21T11:13:22;5.00;99.90
75210;DHT22;63796;53.136;14.882;2023-11-21T11:15:52;4.80;99.90
75210;DHT22;63796;53.136;14.882;2023-11-21T11:18:34;4.90;99.90
75210;DHT22;63796;53.136;14.882;2023-11-21T11:21:07;4.90;99.90
75210;DHT22;63796;53.136;14.882;2023-11-21T11:34:47;4.50;99.90
75210;DHT22;63796;53.136;14.882;2023-11-21T11:37:21;4.40;99.90
75210;DHT22;63796;53.136;14.882;2023-11-21T11:39:50;4.50;99.90
75210;DHT22;63796;53.136;14.882;2023-11-21T11:42:17;4.50;99.90
75210;DHT22;63796;53.136;14.882;2023-11-21T11:44:47;4.30;99.90
75210;DHT22;63796;53.136;14.882;2023-11-21T11:49:57;4.30;99.90
75210;DHT22;63796;53.136;14.882;2023-11-21T11:52:41;4.20;99.90
75210;DHT22;63796;53.136;14.882;2023-11-21T11:55:11;4.30;99.90
75210;DHT22;63796;53.136;14.882;2023-11-21T11:57:55;4.40;99.90
75210;DHT22;63796;53.136;14.882;2023-11-21T12:00:32;4.20;99.90
75210;DHT22;63796;53.136;14.882;2023-11-21T12:03:05;4.20;99.90
75210;DHT22;63796;53.136;14.882;2023-11-21T12:05:35;4.40;99.90
75210;DHT22;63796;53.136;14.882;2023-11-21T12:08:06;4.40;99.90
75210;DHT22;63796;53.136;14.882;2023-11-21T12:10:35;4.30;99.90
75210;DHT22;63796;53.136;14.882;2023-11-21T12:13:08;4.40;99.90
75210;DHT22;63796;53.136;14.882;2023-11-21T12:15:37;4.60;99.90
75210;DHT22;63796;53.136;14.882;2023-11-21T12:18:07;4.40;99.90
75210;DHT22;63796;53.136;14.882;2023-11-21T12:20:35;4.40;99.90
75210;DHT22;63796;53.136;14.882;2023-11-21T12:23:06;4.30;99.90
75210;DHT22;63796;53.136;14.882;2023-11-21T12:25:36;4.40;99.90
75210;DHT22;63796;53.136;14.882;2023-11-21T12:28:04;4.50;99.90
75210;DHT22;63796;53.136;14.882;2023-11-21T12:30:33;4.50;99.90
75210;DHT22;63796;53.136;14.882;2023-11-21T12:33:05;4.40;99.90
75210;DHT22;63796;53.136;14.882;2023-11-21T12:35:36;4.50;99.90
75210;DHT22;63796;53.136;14.882;2023-11-21T12:38:05;4.50;99.90
75210;DHT22;63796;53.136;14.882;2023-11-21T12:40:32;4.30;99.90
75210;DHT22;63796;53.136;14.882;2023-11-21T12:43:00;4.50;99.90
75210;DHT22;63796;53.136;14.882;2023-11-21T12:45:31;4.80;99.90
75210;DHT22;63796;53.136;14.882;2023-11-21T12:48:03;5.00;99.90
75210;DHT22;63796;53.136;14.882;2023-11-21T12:50:36;4.80;99.90
75210;DHT22;63796;53.136;14.882;2023-11-21T12:53:05;4.80;99.90
75210;DHT22;63796;53.136;14.882;2023-11-21T12:55:39;4.80;99.90
75210;DHT22;63796;53.136;14.882;2023-11-21T12:58:09;4.70;99.90
75210;DHT22;63796;53.136;14.882;2023-11-21T13:00:39;4.50;99.90
75210;DHT22;63796;53.136;14.882;2023-11-21T13:03:10;4.80;99.90
75210;DHT22;63796;53.136;14.882;2023-11-21T13:05:53;4.70;99.90
75210;DHT22;63796;53.136;14.882;2023-11-21T13:08:22;4.50;99.90
75210;DHT22;63796;53.136;14.882;2023-11-21T13:10:52;4.30;99.90
75210;DHT22;63796;53.136;14.882;2023-11-21T13:13:23;4.30;99.90
75210;DHT22;63796;53.136;14.882;2023-11-21T13:15:53;4.30;99.90
75210;DHT22;63796;53.136;14.882;2023-11-21T13:18:25;4.20;99.90
75210;DHT22;63796;53.136;14.882;2023-11-21T13:20:54;4.20;99.90
75210;DHT22;63796;53.136;14.882;2023-11-21T13:23:24;4.30;99.90
75210;DHT22;63796;53.136;14.882;2023-11-21T13:25:52;4.30;99.90
75210;DHT22;63796;53.136;14.882;2023-11-21T13:28:31;4.40;99.90
75210;DHT22;63796;53.136;14.882;2023-11-21T13:31:01;4.50;99.90
75210;DHT22;63796;53.136;14.882;2023-11-21T13:33:38;4.50;99.90
75210;DHT22;63796;53.136;14.882;2023-11-21T13:36:08;4.20;99.90
75210;DHT22;63796;53.136;14.882;2023-11-21T13:38:37;4.20;99.90
75210;DHT22;63796;53.136;14.882;2023-11-21T13:41:10;4.40;99.90
75210;DHT22;63796;53.136;14.882;2023-11-21T13:43:39;4.30;99.90
75210;DHT22;63796;53.136;14.882;2023-11-21T13:46:12;4.40;99.90
75210;DHT22;63796;53.136;14.882;2023-11-21T13:48:44;4.40;99.90
75210;DHT22;63796;53.136;14.882;2023-11-21T13:51:18;4.30;99.90
75210;DHT22;63796;53.136;14.882;2023-11-21T13:53:47;4.30;99.90
75210;DHT22;63796;53.136;14.882;2023-11-21T13:56:18;4.40;99.90
75210;DHT22;63796;53.136;14.882;2023-11-21T13:58:52;4.60;99.90
75210;DHT22;63796;53.136;14.882;2023-11-21T14:01:25;4.30;99.90
75210;DHT22;63796;53.136;14.882;2023-11-21T14:03:56;4.20;99.90
75210;DHT22;63796;53.136;14.882;2023-11-21T14:06:43;4.40;99.90
75210;DHT22;63796;53.136;14.882;2023-11-21T14:09:16;4.60;99.90
75210;DHT22;63796;53.136;14.882;2023-11-21T14:12:02;4.60;99.90
75210;DHT22;63796;53.136;14.882;2023-11-21T14:14:33;4.60;99.90
75210;DHT22;63796;53.136;14.882;2023-11-21T14:17:01;4.60;99.90
75210;DHT22;63796;53.136;14.882;2023-11-21T14:19:34;4.60;99.90
75210;DHT22;63796;53.136;14.882;2023-11-21T14:22:03;4.70;99.90
75210;DHT22;63796;53.136;14.882;2023-11-21T14:24:31;4.70;99.90
75210;DHT22;63796;53.136;14.882;2023-11-21T14:26:59;4.60;99.90
75210;DHT22;63796;53.136;14.882;2023-11-21T14:29:26;4.60;99.90
75210;DHT22;63796;53.136;14.882;2023-11-21T14:31:56;4.70;99.90
75210;DHT22;63796;53.136;14.882;2023-11-21T14:34:25;4.70;99.90
75210;DHT22;63796;53.136;14.882;2023-11-21T14:36:53;4.70;99.90
75210;DHT22;63796;53.136;14.882;2023-11-21T14:39:21;4.60;99.90
75210;DHT22;63796;53.136;14.882;2023-11-21T14:41:55;4.40;99.90
75210;DHT22;63796;53.136;14.882;2023-11-21T14:44:23;4.40;99.90
75210;DHT22;63796;53.136;14.882;2023-11-21T14:46:53;4.50;99.90
75210;DHT22;63796;53.136;14.882;2023-11-21T14:49:24;4.40;99.90
75210;DHT22;63796;53.136;14.882;2023-11-21T14:51:55;4.40;99.90
75210;DHT22;63796;53.136;14.882;2023-11-21T14:54:22;4.30;99.90
75210;DHT22;63796;53.136;14.882;2023-11-21T14:57:10;4.40;99.90
75210;DHT22;63796;53.136;14.882;2023-11-21T14:59:45;4.50;99.90
75210;DHT22;63796;53.136;14.882;2023-11-21T15:02:24;4.40;99.90
75210;DHT22;63796;53.136;14.882;2023-11-21T15:05:11;4.40;99.90
75210;DHT22;63796;53.136;14.882;2023-11-21T15:07:44;4.50;99.90
75210;DHT22;63796;53.136;14.882;2023-11-21T15:10:13;4.50;99.90
75210;DHT22;63796;53.136;14.882;2023-11-21T15:12:43;4.50;99.90
75210;DHT22;63796;53.136;14.882;2023-11-21T15:15:11;4.50;99.90
75210;DHT22;63796;53.136;14.882;2023-11-21T15:17:41;4.50;99.90
75210;DHT22;63796;53.136;14.882;2023-11-21T15:20:11;4.40;99.90
75210;DHT22;63796;53.136;14.882;2023-11-21T15:22:46;4.40;99.90
75210;DHT22;63796;53.136;14.882;2023-11-21T15:25:13;4.20;99.90
75210;DHT22;63796;53.136;14.882;2023-11-21T15:27:41;4.30;99.90
75210;DHT22;63796;53.136;14.882;2023-11-21T15:30:08;4.40;99.90
75210;DHT22;63796;53.136;14.882;2023-11-21T15:32:36;4.50;99.90
75210;DHT22;63796;53.136;14.882;2023-11-21T15:35:04;4.40;99.90
75210;DHT22;63796;53.136;14.882;2023-11-21T15:37:32;4.60;99.90
75210;DHT22;63796;53.136;14.882;2023-11-21T15:39:59;4.60;99.90
75210;DHT22;63796;53.136;14.882;2023-11-21T15:42:27;4.50;99.90
75210;DHT22;63796;53.136;14.882;2023-11-21T15:44:55;4.50;99.90
75210;DHT22;63796;53.136;14.882;2023-11-21T15:47:23;4.30;99.90
75210;DHT22;63796;53.136;14.882;2023-11-21T15:49:51;4.30;99.90
75210;DHT22;63796;53.136;14.882;2023-11-21T15:52:19;4.30;99.90
75210;DHT22;63796;53.136;14.882;2023-11-21T15:54:46;4.50;99.90
75210;DHT22;63796;53.136;14.882;2023-11-21T15:57:14;4.50;99.90